Time,TemperatureF,DewpointF,PressureIn,WindDirection,WindDirectionDegrees,WindSpeedMPH,WindSpeedGustMPH,Humidity,HourlyPrecipIn,Conditions,Clouds,dailyrainin,SoftwareType,DateUTC
2013-10-18 00:01:00,60.6,58.8,29.62,NE,41,0.0,4.0,94,0.05,,,0.10,meteohub,2013-10-18 04:01:00,
2013-10-18 00:02:00,60.6,58.8,29.62,NE,41,0.0,4.0,94,0.05,,,0.12,meteohub,2013-10-18 04:02:00,
2013-10-18 00:03:00,60.6,58.8,29.62,NE,41,0.0,4.0,94,0.05,,,0.12,meteohub,2013-10-18 04:03:00,
2013-10-18 00:08:00,60.3,58.8,29.61,NE,41,1.0,2.0,95,0.08,,,0.12,meteohub,2013-10-18 04:08:00,
2013-10-18 00:13:00,60.3,58.8,29.62,North,358,1.0,2.0,95,0.08,,,0.12,meteohub,2013-10-18 04:13:00,
2013-10-18 00:18:00,60.3,58.8,29.63,NNW,340,0.0,2.0,95,0.08,,,0.16,meteohub,2013-10-18 04:18:00,
2013-10-18 00:23:00,60.1,58.6,29.62,NE,56,0.0,5.0,95,0.15,,,0.16,meteohub,2013-10-18 04:23:00,
2013-10-18 00:28:00,60.1,59.0,29.62,South,189,0.0,5.0,96,0.15,,,0.39,meteohub,2013-10-18 04:28:00,
2013-10-18 00:34:00,59.9,58.8,29.62,South,189,0.0,4.0,96,0.34,,,0.39,meteohub,2013-10-18 04:34:00,
2013-10-18 00:39:00,59.7,58.6,29.62,South,189,0.0,4.0,96,0.34,,,0.39,meteohub,2013-10-18 04:39:00,
2013-10-18 00:44:00,59.5,58.5,29.62,ESE,108,0.0,4.0,96,0.34,,,0.40,meteohub,2013-10-18 04:44:00,
2013-10-18 00:49:00,59.2,58.1,29.62,SW,222,0.0,2.0,96,0.31,,,0.40,meteohub,2013-10-18 04:49:00,
2013-10-18 00:54:00,58.8,57.7,29.62,SW,221,0.0,2.0,96,0.31,,,0.40,meteohub,2013-10-18 04:54:00,
2013-10-18 00:59:00,58.8,57.7,29.62,SW,218,0.0,2.0,96,0.28,,,0.40,meteohub,2013-10-18 04:59:00,
2013-10-18 01:04:00,58.6,57.6,29.62,SSE,158,1.0,3.0,96,0.28,,,0.40,meteohub,2013-10-18 05:04:00,
2013-10-18 01:09:00,58.5,57.4,29.62,West,262,6.0,6.0,96,0.28,,,0.40,meteohub,2013-10-18 05:09:00,
2013-10-18 01:14:00,58.3,57.2,29.62,NNE,31,0.0,8.0,96,0.25,,,0.40,meteohub,2013-10-18 05:14:00,
2013-10-18 01:19:00,57.9,56.8,29.62,SSW,198,1.0,8.0,96,0.17,,,0.40,meteohub,2013-10-18 05:19:00,
2013-10-18 01:24:00,57.9,56.8,29.62,SW,223,0.0,8.0,96,0.17,,,0.40,meteohub,2013-10-18 05:24:00,
2013-10-18 01:29:00,57.6,56.5,29.62,SW,223,0.0,8.0,96,0.17,,,0.40,meteohub,2013-10-18 05:29:00,
2013-10-18 01:35:00,57.4,56.3,29.62,ENE,66,0.0,5.0,96,0.00,,,0.40,meteohub,2013-10-18 05:35:00,
2013-10-18 01:40:00,56.8,55.8,29.62,ESE,103,0.0,8.0,96,0.00,,,0.40,meteohub,2013-10-18 05:40:00,
2013-10-18 01:45:00,56.5,55.4,29.63,North,352,1.0,8.0,96,0.00,,,0.40,meteohub,2013-10-18 05:45:00,
2013-10-18 01:50:00,56.1,55.0,29.64,WSW,241,0.0,8.0,96,0.00,,,0.40,meteohub,2013-10-18 05:50:00,
2013-10-18 01:55:00,55.8,54.3,29.64,NNE,28,0.0,4.0,95,0.00,,,0.40,meteohub,2013-10-18 05:55:00,
2013-10-18 02:00:00,55.2,53.8,29.64,ENE,63,1.0,8.0,95,0.00,,,0.40,meteohub,2013-10-18 06:00:00,
2013-10-18 02:05:00,55.0,53.6,29.64,ENE,70,0.0,8.0,95,0.00,,,0.40,meteohub,2013-10-18 06:05:00,
2013-10-18 02:10:00,55.0,53.4,29.65,East,80,4.0,8.0,94,0.00,,,0.40,meteohub,2013-10-18 06:10:00,
2013-10-18 02:15:00,54.9,53.2,29.65,NE,53,2.0,9.0,94,0.00,,,0.40,meteohub,2013-10-18 06:15:00,
2013-10-18 02:20:00,55.0,52.7,29.65,NE,55,6.0,9.0,92,0.00,,,0.40,meteohub,2013-10-18 06:20:00,
2013-10-18 02:26:00,55.4,52.5,29.65,NE,54,0.0,9.0,90,0.00,,,0.40,meteohub,2013-10-18 06:26:00,
2013-10-18 02:31:00,55.6,52.7,29.65,ENE,67,0.0,15.0,90,0.00,,,0.40,meteohub,2013-10-18 06:31:00,
2013-10-18 02:36:00,55.2,52.0,29.65,ESE,123,0.0,15.0,89,0.00,,,0.40,meteohub,2013-10-18 06:36:00,
2013-10-18 02:41:00,55.2,52.9,29.65,ENE,74,0.0,12.0,92,0.00,,,0.40,meteohub,2013-10-18 06:41:00,
2013-10-18 02:46:00,54.9,52.9,29.66,SE,145,0.0,12.0,93,0.00,,,0.40,meteohub,2013-10-18 06:46:00,
2013-10-18 02:51:00,54.7,52.7,29.66,SE,144,0.0,4.0,93,0.00,,,0.40,meteohub,2013-10-18 06:51:00,
2013-10-18 02:56:00,54.3,52.3,29.66,ENE,73,0.0,4.0,93,0.00,,,0.40,meteohub,2013-10-18 06:56:00,
2013-10-18 03:01:00,54.0,52.0,29.66,SE,134,4.0,5.0,93,0.00,,,0.40,meteohub,2013-10-18 07:01:00,
2013-10-18 03:06:00,54.0,52.0,29.66,ENE,67,0.0,5.0,93,0.00,,,0.40,meteohub,2013-10-18 07:06:00,
2013-10-18 03:12:00,53.8,51.8,29.67,ENE,73,0.0,6.0,93,0.00,,,0.40,meteohub,2013-10-18 07:12:00,
2013-10-18 03:17:00,53.8,52.2,29.66,SSW,212,1.0,6.0,94,0.00,,,0.40,meteohub,2013-10-18 07:17:00,
2013-10-18 03:22:00,53.6,52.0,29.67,SSE,150,4.0,6.0,94,0.00,,,0.40,meteohub,2013-10-18 07:22:00,
2013-10-18 03:27:00,53.4,51.4,29.67,WNW,282,1.0,6.0,93,0.00,,,0.40,meteohub,2013-10-18 07:27:00,
2013-10-18 03:32:00,53.4,51.4,29.67,East,92,1.0,5.0,93,0.00,,,0.40,meteohub,2013-10-18 07:32:00,
2013-10-18 03:37:00,53.4,50.9,29.67,ENE,60,2.0,5.0,91,0.00,,,0.40,meteohub,2013-10-18 07:37:00,
2013-10-18 03:42:00,53.8,50.5,29.67,NE,38,2.0,8.0,89,0.00,,,0.40,meteohub,2013-10-18 07:42:00,
2013-10-18 03:47:00,54.0,50.7,29.67,East,83,4.0,8.0,89,0.00,,,0.40,meteohub,2013-10-18 07:47:00,
2013-10-18 03:52:00,54.0,49.8,29.67,ENE,71,0.0,12.0,86,0.00,,,0.40,meteohub,2013-10-18 07:52:00,
2013-10-18 03:57:00,54.1,50.0,29.68,NE,51,1.0,12.0,86,0.00,,,0.40,meteohub,2013-10-18 07:57:00,
2013-10-18 04:02:00,54.1,49.8,29.67,East,85,6.0,12.0,85,0.00,,,0.40,meteohub,2013-10-18 08:02:00,
2013-10-18 04:07:00,54.3,49.6,29.68,ENE,60,2.0,12.0,84,0.00,,,0.40,meteohub,2013-10-18 08:07:00,
2013-10-18 04:12:00,54.3,49.8,29.68,NE,50,7.0,11.0,85,0.00,,,0.40,meteohub,2013-10-18 08:12:00,
2013-10-18 04:17:00,54.1,49.8,29.68,ENE,58,6.0,11.0,85,0.00,,,0.40,meteohub,2013-10-18 08:17:00,
2013-10-18 04:22:00,54.1,49.5,29.69,NE,52,0.0,13.0,84,0.00,,,0.40,meteohub,2013-10-18 08:22:00,
2013-10-18 04:27:00,54.1,49.8,29.69,ENE,75,6.0,13.0,85,0.00,,,0.40,meteohub,2013-10-18 08:27:00,
2013-10-18 04:32:00,54.1,49.5,29.69,ENE,67,7.0,12.0,84,0.00,,,0.40,meteohub,2013-10-18 08:32:00,
2013-10-18 04:37:00,54.1,49.1,29.69,ENE,75,5.0,12.0,83,0.00,,,0.40,meteohub,2013-10-18 08:37:00,
2013-10-18 04:42:00,54.3,49.3,29.70,ENE,69,4.0,16.0,83,0.00,,,0.40,meteohub,2013-10-18 08:42:00,
2013-10-18 04:47:00,54.3,48.9,29.70,NE,49,6.0,16.0,82,0.00,,,0.40,meteohub,2013-10-18 08:47:00,
2013-10-18 04:52:00,54.3,48.9,29.71,ENE,68,13.0,16.0,82,0.00,,,0.40,meteohub,2013-10-18 08:52:00,
2013-10-18 04:57:00,54.5,48.7,29.71,NE,54,2.0,16.0,81,0.00,,,0.40,meteohub,2013-10-18 08:57:00,
2013-10-18 05:02:00,54.5,49.1,29.71,ENE,69,4.0,16.0,82,0.00,,,0.40,meteohub,2013-10-18 09:02:00,
2013-10-18 05:07:00,54.3,48.9,29.71,NE,54,0.0,16.0,82,0.00,,,0.40,meteohub,2013-10-18 09:07:00,
2013-10-18 05:12:00,54.3,49.3,29.71,NE,52,2.0,19.0,83,0.00,,,0.40,meteohub,2013-10-18 09:12:00,
2013-10-18 05:17:00,54.1,49.1,29.72,ENE,68,4.0,19.0,83,0.00,,,0.40,meteohub,2013-10-18 09:17:00,
2013-10-18 05:22:00,54.1,48.7,29.72,ENE,58,4.0,5.0,82,0.00,,,0.40,meteohub,2013-10-18 09:22:00,
2013-10-18 05:27:00,54.3,48.9,29.73,ENE,72,0.0,5.0,82,0.00,,,0.40,meteohub,2013-10-18 09:27:00,
2013-10-18 05:32:00,54.1,48.7,29.72,East,90,2.0,5.0,82,0.00,,,0.40,meteohub,2013-10-18 09:32:00,
2013-10-18 05:37:00,54.1,48.4,29.73,East,79,7.0,15.0,81,0.00,,,0.40,meteohub,2013-10-18 09:37:00,
2013-10-18 05:42:00,54.1,48.0,29.73,NE,50,7.0,15.0,80,0.00,,,0.40,meteohub,2013-10-18 09:42:00,
2013-10-18 05:47:00,54.0,48.0,29.73,ENE,75,9.0,15.0,80,0.00,,,0.40,meteohub,2013-10-18 09:47:00,
2013-10-18 05:52:00,53.6,47.8,29.74,ENE,69,7.0,15.0,81,0.00,,,0.40,meteohub,2013-10-18 09:52:00,
2013-10-18 05:57:00,53.2,47.5,29.74,East,81,4.0,17.0,81,0.00,,,0.40,meteohub,2013-10-18 09:57:00,
2013-10-18 06:03:00,53.1,47.3,29.74,East,79,6.0,17.0,81,0.00,,,0.40,meteohub,2013-10-18 10:03:00,
2013-10-18 06:08:00,52.7,47.1,29.74,East,101,2.0,17.0,81,0.00,,,0.40,meteohub,2013-10-18 10:08:00,
2013-10-18 06:13:00,52.5,46.9,29.74,ENE,67,6.0,17.0,81,0.00,,,0.40,meteohub,2013-10-18 10:13:00,
2013-10-18 06:18:00,52.3,46.4,29.75,South,174,2.0,17.0,80,0.00,,,0.40,meteohub,2013-10-18 10:18:00,
2013-10-18 06:23:00,52.2,46.2,29.75,ENE,73,2.0,12.0,80,0.00,,,0.40,meteohub,2013-10-18 10:23:00,
2013-10-18 06:28:00,52.2,46.2,29.75,ENE,63,1.0,12.0,80,0.00,,,0.40,meteohub,2013-10-18 10:28:00,
2013-10-18 06:33:00,52.2,45.9,29.75,ENE,60,11.0,12.0,79,0.00,,,0.40,meteohub,2013-10-18 10:33:00,
2013-10-18 06:38:00,52.2,45.5,29.76,NE,55,4.0,12.0,78,0.00,,,0.40,meteohub,2013-10-18 10:38:00,
2013-10-18 06:43:00,52.0,45.7,29.76,NE,56,6.0,18.0,79,0.00,,,0.40,meteohub,2013-10-18 10:43:00,
2013-10-18 06:48:00,52.0,45.0,29.76,East,81,2.0,18.0,77,0.00,,,0.40,meteohub,2013-10-18 10:48:00,
2013-10-18 06:54:00,52.0,45.3,29.76,East,81,4.0,18.0,78,0.00,,,0.40,meteohub,2013-10-18 10:54:00,
2013-10-18 06:59:00,52.0,45.3,29.76,East,86,1.0,16.0,78,0.00,,,0.40,meteohub,2013-10-18 10:59:00,
2013-10-18 07:04:00,51.8,45.1,29.76,East,93,1.0,16.0,78,0.00,,,0.40,meteohub,2013-10-18 11:04:00,
2013-10-18 07:09:00,51.6,45.0,29.77,NE,55,0.0,16.0,78,0.00,,,0.40,meteohub,2013-10-18 11:09:00,
2013-10-18 07:14:00,51.6,45.0,29.77,NE,38,1.0,11.0,78,0.00,,,0.40,meteohub,2013-10-18 11:14:00,
2013-10-18 07:19:00,51.4,44.4,29.77,East,90,2.0,11.0,77,0.00,,,0.40,meteohub,2013-10-18 11:19:00,
2013-10-18 07:24:00,51.4,45.1,29.77,ENE,63,5.0,11.0,79,0.00,,,0.40,meteohub,2013-10-18 11:24:00,
2013-10-18 07:29:00,51.4,44.8,29.78,East,89,1.0,12.0,78,0.00,,,0.40,meteohub,2013-10-18 11:29:00,
2013-10-18 07:34:00,51.4,44.1,29.79,East,82,4.0,12.0,76,0.00,,,0.40,meteohub,2013-10-18 11:34:00,
2013-10-18 07:39:00,51.6,44.2,29.79,ENE,63,1.0,12.0,76,0.00,,,0.40,meteohub,2013-10-18 11:39:00,
2013-10-18 07:44:00,51.8,44.4,29.79,ENE,73,2.0,14.0,76,0.00,,,0.40,meteohub,2013-10-18 11:44:00,
2013-10-18 07:49:00,51.8,45.5,29.80,ENE,70,1.0,14.0,79,0.00,,,0.40,meteohub,2013-10-18 11:49:00,
2013-10-18 07:54:00,51.6,45.0,29.80,ESE,106,6.0,14.0,78,0.00,,,0.40,meteohub,2013-10-18 11:54:00,
2013-10-18 08:00:00,51.8,44.8,29.80,East,84,2.0,12.0,77,0.00,,,0.40,meteohub,2013-10-18 12:00:00,
2013-10-18 08:05:00,51.8,45.1,29.80,ENE,77,2.0,12.0,78,0.00,,,0.40,meteohub,2013-10-18 12:05:00,
2013-10-18 08:10:00,51.8,44.4,29.80,East,90,4.0,12.0,76,0.00,,,0.40,meteohub,2013-10-18 12:10:00,
2013-10-18 08:15:00,52.0,45.0,29.80,ENE,64,5.0,10.0,77,0.00,,,0.40,meteohub,2013-10-18 12:15:00,
2013-10-18 08:20:00,52.0,45.0,29.80,ENE,74,7.0,10.0,77,0.00,,,0.40,meteohub,2013-10-18 12:20:00,
2013-10-18 08:25:00,52.0,44.2,29.80,NE,46,0.0,10.0,75,0.00,,,0.40,meteohub,2013-10-18 12:25:00,
2013-10-18 08:30:00,52.0,44.6,29.81,ENE,71,4.0,13.0,76,0.00,,,0.40,meteohub,2013-10-18 12:30:00,
2013-10-18 08:35:00,52.0,44.2,29.81,ENE,67,11.0,13.0,75,0.00,,,0.40,meteohub,2013-10-18 12:35:00,
2013-10-18 08:40:00,52.0,43.9,29.80,ENE,71,1.0,13.0,74,0.00,,,0.40,meteohub,2013-10-18 12:40:00,
2013-10-18 08:45:00,52.0,43.9,29.81,East,90,2.0,12.0,74,0.00,,,0.40,meteohub,2013-10-18 12:45:00,
2013-10-18 08:50:00,52.0,44.6,29.81,East,85,2.0,12.0,76,0.00,,,0.40,meteohub,2013-10-18 12:50:00,
2013-10-18 08:55:00,52.0,43.9,29.82,ENE,73,7.0,12.0,74,0.00,,,0.40,meteohub,2013-10-18 12:55:00,
2013-10-18 09:00:00,52.0,43.5,29.82,ENE,78,6.0,16.0,73,0.00,,,0.40,meteohub,2013-10-18 13:00:00,
2013-10-18 09:06:00,52.0,43.9,29.83,ENE,70,7.0,16.0,74,0.00,,,0.40,meteohub,2013-10-18 13:06:00,
2013-10-18 09:11:00,52.0,43.5,29.83,ENE,70,5.0,16.0,73,0.00,,,0.40,meteohub,2013-10-18 13:11:00,
2013-10-18 09:16:00,52.0,43.2,29.82,East,83,1.0,18.0,72,0.00,,,0.40,meteohub,2013-10-18 13:16:00,
2013-10-18 09:21:00,52.0,44.2,29.83,East,83,5.0,18.0,75,0.00,,,0.40,meteohub,2013-10-18 13:21:00,
2013-10-18 09:26:00,52.0,44.2,29.83,East,83,6.0,18.0,75,0.00,,,0.40,meteohub,2013-10-18 13:26:00,
2013-10-18 09:31:00,52.0,44.2,29.83,SE,125,2.0,15.0,75,0.00,,,0.40,meteohub,2013-10-18 13:31:00,
2013-10-18 09:36:00,52.0,44.2,29.83,ENE,77,5.0,15.0,75,0.00,,,0.40,meteohub,2013-10-18 13:36:00,
2013-10-18 09:41:00,52.0,44.6,29.83,NE,53,1.0,12.0,76,0.00,,,0.40,meteohub,2013-10-18 13:41:00,
2013-10-18 09:46:00,52.0,44.6,29.83,NE,40,2.0,12.0,76,0.00,,,0.40,meteohub,2013-10-18 13:46:00,
2013-10-18 09:51:00,52.0,44.2,29.83,ENE,71,1.0,12.0,75,0.00,,,0.40,meteohub,2013-10-18 13:51:00,
2013-10-18 09:56:00,52.2,44.4,29.83,ENE,78,5.0,12.0,75,0.00,,,0.40,meteohub,2013-10-18 13:56:00,
2013-10-18 10:01:00,52.2,44.8,29.84,ENE,67,9.0,9.0,76,0.00,,,0.40,meteohub,2013-10-18 14:01:00,
2013-10-18 10:06:00,52.3,44.6,29.84,ENE,75,5.0,8.0,75,0.00,,,0.40,meteohub,2013-10-18 14:06:00,
2013-10-18 10:12:00,52.5,44.8,29.83,East,79,1.0,8.0,75,0.00,,,0.40,meteohub,2013-10-18 14:12:00,
2013-10-18 10:17:00,52.5,44.8,29.83,ENE,59,7.0,12.0,75,0.00,,,0.40,meteohub,2013-10-18 14:17:00,
2013-10-18 10:22:00,52.5,44.1,29.83,East,83,2.0,12.0,73,0.00,,,0.40,meteohub,2013-10-18 14:22:00,
2013-10-18 10:27:00,52.5,44.1,29.83,East,79,6.0,12.0,73,0.00,,,0.40,meteohub,2013-10-18 14:27:00,
2013-10-18 10:32:00,52.5,44.1,29.84,ENE,73,7.0,11.0,73,0.00,,,0.40,meteohub,2013-10-18 14:32:00,
2013-10-18 10:37:00,52.9,43.7,29.84,NNE,26,3.0,11.0,71,0.00,,,0.40,meteohub,2013-10-18 14:37:00,
2013-10-18 10:42:00,53.1,43.9,29.83,NE,56,4.0,18.0,71,0.00,,,0.40,meteohub,2013-10-18 14:42:00,
2013-10-18 10:47:00,53.1,44.2,29.84,SSW,195,1.0,18.0,72,0.00,,,0.40,meteohub,2013-10-18 14:47:00,
2013-10-18 10:52:00,53.2,44.1,29.85,NE,55,13.0,18.0,71,0.00,,,0.40,meteohub,2013-10-18 14:52:00,
2013-10-18 10:57:00,53.4,43.5,29.84,East,83,2.0,14.0,69,0.00,,,0.40,meteohub,2013-10-18 14:57:00,
2013-10-18 11:02:00,53.8,43.9,29.85,NNE,26,5.0,14.0,69,0.00,,,0.40,meteohub,2013-10-18 15:02:00,
2013-10-18 11:07:00,54.1,44.6,29.85,ENE,72,6.0,14.0,70,0.00,,,0.40,meteohub,2013-10-18 15:07:00,
2013-10-18 11:12:00,54.7,43.9,29.84,ENE,61,4.0,14.0,67,0.00,,,0.40,meteohub,2013-10-18 15:12:00,
2013-10-18 11:18:00,55.2,44.1,29.85,East,79,8.0,13.0,66,0.00,,,0.40,meteohub,2013-10-18 15:18:00,
2013-10-18 11:23:00,55.6,44.4,29.85,ENE,74,1.0,13.0,66,0.00,,,0.40,meteohub,2013-10-18 15:23:00,
2013-10-18 11:28:00,55.9,44.4,29.85,East,83,10.0,13.0,65,0.00,,,0.40,meteohub,2013-10-18 15:28:00,
2013-10-18 11:33:00,55.9,43.9,29.85,East,87,7.0,14.0,64,0.00,,,0.40,meteohub,2013-10-18 15:33:00,
2013-10-18 11:38:00,56.1,44.1,29.84,ENE,58,9.0,14.0,64,0.00,,,0.40,meteohub,2013-10-18 15:38:00,
2013-10-18 11:43:00,56.3,43.9,29.84,East,81,6.0,17.0,63,0.00,,,0.40,meteohub,2013-10-18 15:43:00,
2013-10-18 11:48:00,56.8,44.4,29.86,East,87,5.0,17.0,63,0.00,,,0.40,meteohub,2013-10-18 15:48:00,
2013-10-18 11:53:00,57.4,45.3,29.84,ENE,62,7.0,17.0,64,0.00,,,0.40,meteohub,2013-10-18 15:53:00,
2013-10-18 11:58:00,57.9,45.0,29.85,ENE,60,5.0,16.0,62,0.00,,,0.40,meteohub,2013-10-18 15:58:00,
2013-10-18 12:03:00,57.7,43.5,29.85,East,98,5.0,16.0,59,0.00,,,0.40,meteohub,2013-10-18 16:03:00,
2013-10-18 12:08:00,57.6,44.2,29.86,North,11,7.0,16.0,61,0.00,,,0.40,meteohub,2013-10-18 16:08:00,
2013-10-18 12:13:00,57.4,43.7,29.86,West,277,6.0,16.0,60,0.00,,,0.40,meteohub,2013-10-18 16:13:00,
2013-10-18 12:18:00,57.4,43.2,29.85,NE,53,6.0,20.0,59,0.00,,,0.40,meteohub,2013-10-18 16:18:00,
2013-10-18 12:24:00,57.6,44.2,29.86,ENE,77,4.0,20.0,61,0.00,,,0.40,meteohub,2013-10-18 16:24:00,
2013-10-18 12:29:00,57.7,43.0,29.86,ESE,120,1.0,20.0,58,0.00,,,0.40,meteohub,2013-10-18 16:29:00,
2013-10-18 12:34:00,58.3,42.6,29.86,ENE,69,17.0,19.0,56,0.00,,,0.40,meteohub,2013-10-18 16:34:00,
2013-10-18 12:39:00,58.5,42.4,29.85,ENE,77,8.0,19.0,55,0.00,,,0.40,meteohub,2013-10-18 16:39:00,
2013-10-18 12:44:00,58.8,43.2,29.85,ENE,75,1.0,19.0,56,0.00,,,0.40,meteohub,2013-10-18 16:44:00,
2013-10-18 12:49:00,59.2,43.5,29.85,SE,134,4.0,19.0,56,0.00,,,0.40,meteohub,2013-10-18 16:49:00,
2013-10-18 12:54:00,59.4,45.5,29.85,East,85,4.0,17.0,60,0.00,,,0.40,meteohub,2013-10-18 16:54:00,
2013-10-18 12:59:00,59.7,44.1,29.84,East,80,7.0,17.0,56,0.00,,,0.40,meteohub,2013-10-18 16:59:00,
2013-10-18 13:04:00,60.1,42.4,29.85,ENE,73,7.0,17.0,52,0.00,,,0.40,meteohub,2013-10-18 17:04:00,
2013-10-18 13:09:00,60.3,42.1,29.85,East,82,7.0,20.0,51,0.00,,,0.40,meteohub,2013-10-18 17:09:00,
2013-10-18 13:14:00,60.3,43.0,29.85,ENE,58,6.0,20.0,53,0.00,,,0.40,meteohub,2013-10-18 17:14:00,
2013-10-18 13:20:00,60.3,42.1,29.85,East,85,4.0,20.0,51,0.00,,,0.40,meteohub,2013-10-18 17:20:00,
2013-10-18 13:25:00,60.3,42.6,29.85,ENE,62,1.0,20.0,52,0.00,,,0.40,meteohub,2013-10-18 17:25:00,
2013-10-18 13:30:00,60.3,42.6,29.85,ESE,102,4.0,15.0,52,0.00,,,0.40,meteohub,2013-10-18 17:30:00,
2013-10-18 13:35:00,60.6,43.9,29.84,East,80,4.0,15.0,54,0.00,,,0.40,meteohub,2013-10-18 17:35:00,
2013-10-18 13:40:00,61.5,42.6,29.84,East,85,0.0,15.0,50,0.00,,,0.40,meteohub,2013-10-18 17:40:00,
2013-10-18 13:45:00,62.1,43.2,29.85,ENE,67,2.0,11.0,50,0.00,,,0.40,meteohub,2013-10-18 17:45:00,
2013-10-18 13:50:00,63.0,43.0,29.84,SE,138,3.0,11.0,48,0.00,,,0.40,meteohub,2013-10-18 17:50:00,
2013-10-18 13:55:00,63.3,42.3,29.84,NE,50,5.0,11.0,46,0.00,,,0.40,meteohub,2013-10-18 17:55:00,
2013-10-18 14:00:00,63.5,43.0,29.84,East,92,1.0,9.0,47,0.00,,,0.40,meteohub,2013-10-18 18:00:00,
2013-10-18 14:05:00,63.7,44.2,29.84,ENE,69,0.0,9.0,49,0.00,,,0.40,meteohub,2013-10-18 18:05:00,
2013-10-18 14:11:00,63.9,42.1,29.84,East,82,2.0,9.0,45,0.00,,,0.40,meteohub,2013-10-18 18:11:00,
2013-10-18 14:16:00,63.9,42.1,29.84,East,88,1.0,11.0,45,0.00,,,0.40,meteohub,2013-10-18 18:16:00,
2013-10-18 14:21:00,64.8,42.3,29.85,East,91,2.0,11.0,44,0.00,,,0.40,meteohub,2013-10-18 18:21:00,
2013-10-18 14:26:00,65.3,40.3,29.84,NE,44,1.0,11.0,40,0.00,,,0.40,meteohub,2013-10-18 18:26:00,
2013-10-18 14:31:00,65.7,41.9,29.84,ENE,64,0.0,9.0,42,0.00,,,0.40,meteohub,2013-10-18 18:31:00,
2013-10-18 14:36:00,66.4,39.9,29.85,ENE,73,2.0,9.0,38,0.00,,,0.40,meteohub,2013-10-18 18:36:00,
2013-10-18 14:41:00,66.0,39.0,29.84,NNE,24,2.0,9.0,37,0.00,,,0.40,meteohub,2013-10-18 18:41:00,
2013-10-18 14:46:00,66.0,39.0,29.85,East,85,1.0,9.0,37,0.00,,,0.40,meteohub,2013-10-18 18:46:00,
2013-10-18 14:51:00,66.0,37.6,29.84,ENE,67,2.0,9.0,35,0.00,,,0.40,meteohub,2013-10-18 18:51:00,
2013-10-18 14:56:00,65.8,40.1,29.85,SSE,150,6.0,9.0,39,0.00,,,0.40,meteohub,2013-10-18 18:56:00,
2013-10-18 15:01:00,65.8,40.1,29.84,NE,54,4.0,8.0,39,0.00,,,0.40,meteohub,2013-10-18 19:01:00,
2013-10-18 15:06:00,65.8,40.1,29.84,East,97,1.0,8.0,39,0.00,,,0.40,meteohub,2013-10-18 19:06:00,
2013-10-18 15:12:00,65.8,40.1,29.85,East,85,1.0,8.0,39,0.00,,,0.40,meteohub,2013-10-18 19:12:00,
2013-10-18 15:17:00,66.0,39.0,29.85,ENE,65,4.0,11.0,37,0.00,,,0.40,meteohub,2013-10-18 19:17:00,
2013-10-18 15:22:00,65.8,39.6,29.85,NE,37,4.0,11.0,38,0.00,,,0.40,meteohub,2013-10-18 19:22:00,
2013-10-18 15:27:00,65.8,42.8,29.85,ENE,70,4.0,11.0,43,0.00,,,0.40,meteohub,2013-10-18 19:27:00,
2013-10-18 15:32:00,65.7,40.1,29.85,ENE,71,4.0,9.0,39,0.00,,,0.40,meteohub,2013-10-18 19:32:00,
2013-10-18 15:37:00,64.2,38.1,29.85,NNE,24,3.0,9.0,38,0.00,,,0.42,meteohub,2013-10-18 19:37:00,
2013-10-18 15:42:00,63.9,39.7,29.85,East,83,4.0,9.0,41,0.02,,,0.42,meteohub,2013-10-18 19:42:00,
2013-10-18 15:47:00,64.0,39.9,29.85,NE,52,1.0,16.0,41,0.02,,,0.42,meteohub,2013-10-18 19:47:00,
2013-10-18 15:52:00,63.7,39.6,29.86,East,96,4.0,16.0,41,0.02,,,0.00,meteohub,2013-10-18 19:52:00,
2013-10-18 15:57:00,63.3,39.9,29.85,NNW,345,2.0,16.0,42,0.02,,,0.42,meteohub,2013-10-18 19:57:00,
2013-10-18 16:02:00,63.3,39.2,29.86,East,90,4.0,11.0,41,0.02,,,0.42,meteohub,2013-10-18 20:02:00,
2013-10-18 16:07:00,62.8,39.4,29.86,NE,52,5.0,11.0,42,0.02,,,0.42,meteohub,2013-10-18 20:07:00,
2013-10-18 16:12:00,62.2,38.8,29.86,NE,51,2.0,11.0,42,0.02,,,0.42,meteohub,2013-10-18 20:12:00,
2013-10-18 16:17:00,62.1,38.7,29.86,NE,52,1.0,12.0,42,0.02,,,0.42,meteohub,2013-10-18 20:17:00,
2013-10-18 16:22:00,62.1,39.4,29.86,ENE,77,5.0,12.0,43,0.02,,,0.42,meteohub,2013-10-18 20:22:00,
2013-10-18 16:27:00,61.7,39.0,29.86,ENE,73,2.0,12.0,43,0.02,,,0.42,meteohub,2013-10-18 20:27:00,
2013-10-18 16:32:00,61.2,39.7,29.86,ENE,66,2.0,15.0,45,0.02,,,0.42,meteohub,2013-10-18 20:32:00,
2013-10-18 16:37:00,60.3,38.3,29.86,NNE,29,0.0,15.0,44,0.02,,,0.42,meteohub,2013-10-18 20:37:00,
2013-10-18 16:42:00,59.5,37.6,29.86,ENE,64,5.0,7.0,44,0.00,,,0.42,meteohub,2013-10-18 20:42:00,
2013-10-18 16:47:00,59.2,37.9,29.86,ENE,70,5.0,7.0,45,0.00,,,0.42,meteohub,2013-10-18 20:47:00,
2013-10-18 16:52:00,58.6,38.5,29.86,ENE,71,0.0,9.0,47,0.00,,,0.42,meteohub,2013-10-18 20:52:00,
2013-10-18 16:57:00,58.1,39.0,29.86,East,98,0.0,9.0,49,0.00,,,0.42,meteohub,2013-10-18 20:57:00,
2013-10-18 17:02:00,57.6,39.6,29.86,ENE,69,0.0,9.0,51,0.00,,,0.42,meteohub,2013-10-18 21:02:00,
2013-10-18 17:07:00,57.2,39.2,29.86,ENE,69,0.0,9.0,51,0.00,,,0.42,meteohub,2013-10-18 21:07:00,
2013-10-18 17:12:00,57.0,38.5,29.87,NE,56,1.0,5.0,50,0.00,,,0.42,meteohub,2013-10-18 21:12:00,
2013-10-18 17:17:00,56.8,41.4,29.87,NE,56,0.0,5.0,56,0.00,,,0.42,meteohub,2013-10-18 21:17:00,
2013-10-18 17:22:00,55.6,41.5,29.87,NE,56,0.0,6.0,59,0.00,,,0.42,meteohub,2013-10-18 21:22:00,
2013-10-18 17:27:00,54.7,41.9,29.87,NE,56,0.0,6.0,62,0.00,,,0.42,meteohub,2013-10-18 21:27:00,
2013-10-18 17:32:00,53.4,42.8,29.87,NE,56,0.0,2.0,67,0.00,,,0.42,meteohub,2013-10-18 21:32:00,
2013-10-18 17:38:00,52.7,40.8,29.87,WSW,248,2.0,2.0,64,0.00,,,0.42,meteohub,2013-10-18 21:38:00,
2013-10-18 17:43:00,52.3,42.1,29.88,WSW,254,0.0,2.0,68,0.00,,,0.42,meteohub,2013-10-18 21:43:00,
2013-10-18 17:48:00,52.0,41.7,29.88,South,189,1.0,5.0,68,0.00,,,0.42,meteohub,2013-10-18 21:48:00,
2013-10-18 17:53:00,51.8,41.2,29.88,ENE,75,4.0,5.0,67,0.00,,,0.42,meteohub,2013-10-18 21:53:00,
2013-10-18 17:58:00,51.6,41.0,29.88,ENE,59,7.0,7.0,67,0.00,,,0.42,meteohub,2013-10-18 21:58:00,
2013-10-18 18:03:00,51.6,40.6,29.88,SSW,200,0.0,7.0,66,0.00,,,0.42,meteohub,2013-10-18 22:03:00,
2013-10-18 18:08:00,51.4,41.2,29.88,ENE,62,2.0,7.0,68,0.00,,,0.42,meteohub,2013-10-18 22:08:00,
2013-10-18 18:13:00,51.4,41.9,29.88,ENE,61,1.0,7.0,70,0.00,,,0.42,meteohub,2013-10-18 22:13:00,
2013-10-18 18:18:00,50.9,41.2,29.89,ENE,69,0.0,4.0,69,0.00,,,0.42,meteohub,2013-10-18 22:18:00,
2013-10-18 18:23:00,50.4,41.7,29.89,ENE,67,0.0,4.0,72,0.00,,,0.42,meteohub,2013-10-18 22:23:00,
2013-10-18 18:29:00,49.8,40.8,29.89,WSW,251,2.0,4.0,71,0.00,,,0.42,meteohub,2013-10-18 22:29:00,
2013-10-18 18:34:00,49.8,40.8,29.90,ENE,68,1.0,4.0,71,0.00,,,0.42,meteohub,2013-10-18 22:34:00,
2013-10-18 18:39:00,49.8,40.8,29.90,ENE,61,6.0,6.0,71,0.00,,,0.42,meteohub,2013-10-18 22:39:00,
2013-10-18 18:44:00,49.6,40.3,29.90,North,4,0.0,6.0,70,0.00,,,0.42,meteohub,2013-10-18 22:44:00,
2013-10-18 18:49:00,49.5,40.5,29.91,West,262,0.0,6.0,71,0.00,,,0.42,meteohub,2013-10-18 22:49:00,
2013-10-18 18:54:00,49.5,40.1,29.91,ENE,66,0.0,6.0,70,0.00,,,0.42,meteohub,2013-10-18 22:54:00,
2013-10-18 18:59:00,49.8,40.1,29.91,NNW,347,1.0,3.0,69,0.00,,,0.42,meteohub,2013-10-18 22:59:00,
2013-10-18 19:04:00,49.6,40.6,29.91,WNW,302,0.0,3.0,71,0.00,,,0.42,meteohub,2013-10-18 23:04:00,
2013-10-18 19:10:00,49.3,41.4,29.91,WNW,302,0.0,6.0,74,0.00,,,0.42,meteohub,2013-10-18 23:10:00,
2013-10-18 19:15:00,48.7,40.8,29.91,WNW,302,1.0,6.0,74,0.00,,,0.42,meteohub,2013-10-18 23:15:00,
2013-10-18 19:20:00,48.4,41.2,29.91,WNW,302,0.0,3.0,76,0.00,,,0.42,meteohub,2013-10-18 23:20:00,
2013-10-18 19:25:00,48.0,41.2,29.92,WNW,302,0.0,3.0,77,0.00,,,0.42,meteohub,2013-10-18 23:25:00,
2013-10-18 19:30:00,47.7,41.2,29.92,WNW,302,0.0,3.0,78,0.00,,,0.42,meteohub,2013-10-18 23:30:00,
2013-10-18 19:35:00,47.5,41.0,29.92,WNW,302,0.0,3.0,78,0.00,,,0.42,meteohub,2013-10-18 23:35:00,
2013-10-18 19:40:00,46.9,40.8,29.92,WNW,302,0.0,3.0,79,0.00,,,0.42,meteohub,2013-10-18 23:40:00,
2013-10-18 19:45:00,46.6,40.5,29.92,WNW,302,0.0,3.0,79,0.00,,,0.42,meteohub,2013-10-18 23:45:00,
2013-10-18 19:50:00,46.4,40.8,29.92,WNW,302,0.0,1.0,81,0.00,,,0.42,meteohub,2013-10-18 23:50:00,
2013-10-18 19:56:00,46.0,40.3,29.92,WNW,302,0.0,1.0,80,0.00,,,0.42,meteohub,2013-10-18 23:56:00,
2013-10-18 20:01:00,45.9,40.3,29.93,WNW,302,0.0,1.0,81,0.00,,,0.42,meteohub,2013-10-19 00:01:00,
2013-10-18 20:06:00,45.7,40.1,29.93,WNW,302,1.0,1.0,81,0.00,,,0.42,meteohub,2013-10-19 00:06:00,
2013-10-18 20:11:00,45.1,39.9,29.93,WNW,302,0.0,1.0,82,0.00,,,0.42,meteohub,2013-10-19 00:11:00,
2013-10-18 20:16:00,44.8,39.9,29.93,WNW,302,0.0,1.0,83,0.00,,,0.00,meteohub,2013-10-19 00:16:00,
2013-10-18 20:21:00,44.6,40.1,29.93,SSE,155,0.0,1.0,84,0.00,,,0.00,meteohub,2013-10-19 00:21:00,
2013-10-18 20:26:00,44.6,40.1,29.93,SSE,156,0.0,1.0,84,0.00,,,0.00,meteohub,2013-10-19 00:26:00,
2013-10-18 20:31:00,44.4,39.9,29.93,SW,219,1.0,2.0,84,0.00,,,0.00,meteohub,2013-10-19 00:31:00,
2013-10-18 20:36:00,44.8,40.3,29.93,WSW,237,1.0,2.0,84,0.00,,,0.00,meteohub,2013-10-19 00:36:00,
2013-10-18 20:41:00,45.0,40.5,29.93,SSW,208,0.0,3.0,84,0.00,,,0.00,meteohub,2013-10-19 00:41:00,
2013-10-18 20:46:00,45.7,40.8,29.93,SW,223,0.0,3.0,83,0.00,,,0.00,meteohub,2013-10-19 00:46:00,
2013-10-18 20:52:00,45.7,40.5,29.94,SW,223,0.0,4.0,82,0.00,,,0.00,meteohub,2013-10-19 00:52:00,
2013-10-18 20:57:00,45.3,40.5,29.94,SW,223,0.0,4.0,83,0.00,,,0.00,meteohub,2013-10-19 00:57:00,
2013-10-18 21:02:00,45.3,40.5,29.94,SW,223,0.0,4.0,83,0.00,,,0.00,meteohub,2013-10-19 01:02:00,
2013-10-18 21:07:00,45.0,40.1,29.94,SW,223,0.0,4.0,83,0.00,,,0.00,meteohub,2013-10-19 01:07:00,
2013-10-18 21:12:00,44.6,40.1,29.95,SW,223,0.0,2.0,84,0.00,,,0.00,meteohub,2013-10-19 01:12:00,
2013-10-18 21:17:00,44.2,39.7,29.95,SW,223,0.0,2.0,84,0.00,,,0.00,meteohub,2013-10-19 01:17:00,
2013-10-18 21:22:00,43.9,39.4,29.95,SW,223,0.0,2.0,84,0.00,,,0.00,meteohub,2013-10-19 01:22:00,
2013-10-18 21:27:00,43.3,39.4,29.95,SW,223,0.0,2.0,86,0.00,,,0.00,meteohub,2013-10-19 01:27:00,
2013-10-18 21:33:00,43.3,39.4,29.95,SW,223,0.0,1.0,86,0.00,,,0.00,meteohub,2013-10-19 01:33:00,
2013-10-18 21:38:00,43.0,39.4,29.95,SW,223,0.0,1.0,87,0.00,,,0.00,meteohub,2013-10-19 01:38:00,
2013-10-18 21:43:00,42.6,39.4,29.96,SW,223,0.0,1.0,88,0.00,,,0.00,meteohub,2013-10-19 01:43:00,
2013-10-18 21:48:00,42.4,39.4,29.96,SW,223,0.0,1.0,89,0.00,,,0.00,meteohub,2013-10-19 01:48:00,
2013-10-18 21:53:00,42.4,39.4,29.96,SW,223,0.0,1.0,89,0.00,,,0.00,meteohub,2013-10-19 01:53:00,
2013-10-18 21:58:00,42.3,39.6,29.96,SW,223,0.0,1.0,90,0.00,,,0.00,meteohub,2013-10-19 01:58:00,
2013-10-18 22:03:00,42.1,39.4,29.96,SW,223,0.0,1.0,90,0.00,,,0.00,meteohub,2013-10-19 02:03:00,
2013-10-18 22:08:00,42.1,39.4,29.96,SW,223,0.0,1.0,90,0.00,,,0.00,meteohub,2013-10-19 02:08:00,
2013-10-18 22:13:00,41.7,39.0,29.96,SW,223,0.0,1.0,90,0.00,,,0.00,meteohub,2013-10-19 02:13:00,
2013-10-18 22:18:00,41.5,38.8,29.96,SW,223,0.0,1.0,90,0.00,,,0.00,meteohub,2013-10-19 02:18:00,
2013-10-18 22:23:00,41.4,38.7,29.96,SW,223,0.0,1.0,90,0.00,,,0.00,meteohub,2013-10-19 02:23:00,
2013-10-18 22:28:00,41.2,38.8,29.97,SW,223,0.0,1.0,91,0.00,,,0.00,meteohub,2013-10-19 02:28:00,
2013-10-18 22:34:00,40.8,38.5,29.96,SW,223,0.0,1.0,91,0.00,,,0.00,meteohub,2013-10-19 02:34:00,
2013-10-18 22:39:00,40.6,38.3,29.96,SW,223,0.0,1.0,91,0.00,,,0.00,meteohub,2013-10-19 02:39:00,
2013-10-18 22:44:00,40.6,38.5,29.97,SW,223,0.0,1.0,92,0.00,,,0.00,meteohub,2013-10-19 02:44:00,
2013-10-18 22:49:00,40.6,38.5,29.97,SW,223,0.0,1.0,92,0.00,,,0.00,meteohub,2013-10-19 02:49:00,
2013-10-18 22:54:00,40.3,38.1,29.97,SW,223,0.0,1.0,92,0.00,,,0.00,meteohub,2013-10-19 02:54:00,
2013-10-18 22:59:00,40.1,37.9,29.97,SW,223,0.0,1.0,92,0.00,,,0.00,meteohub,2013-10-19 02:59:00,
2013-10-18 23:04:00,39.9,37.8,29.97,SW,223,0.0,1.0,92,0.00,,,0.00,meteohub,2013-10-19 03:04:00,
2013-10-18 23:09:00,39.7,37.6,29.97,SW,223,0.0,1.0,92,0.00,,,0.00,meteohub,2013-10-19 03:09:00,
2013-10-18 23:14:00,39.7,37.9,29.97,SW,223,0.0,1.0,93,0.00,,,0.00,meteohub,2013-10-19 03:14:00,
2013-10-18 23:19:00,39.6,37.8,29.97,SW,223,0.0,1.0,93,0.00,,,0.00,meteohub,2013-10-19 03:19:00,
2013-10-18 23:24:00,39.4,37.6,29.97,SW,223,0.0,1.0,93,0.00,,,0.00,meteohub,2013-10-19 03:24:00,
2013-10-18 23:29:00,39.4,37.6,29.97,SW,223,0.0,1.0,93,0.00,,,0.00,meteohub,2013-10-19 03:29:00,
2013-10-18 23:34:00,39.4,37.8,29.98,SW,223,0.0,1.0,94,0.00,,,0.00,meteohub,2013-10-19 03:34:00,
2013-10-18 23:39:00,39.0,37.4,29.98,SW,223,0.0,1.0,94,0.00,,,0.00,meteohub,2013-10-19 03:39:00,
2013-10-18 23:44:00,39.0,37.2,29.98,SW,223,0.0,1.0,93,0.00,,,0.00,meteohub,2013-10-19 03:44:00,
2013-10-18 23:49:00,38.8,37.2,29.98,SW,223,0.0,1.0,94,0.00,,,0.00,meteohub,2013-10-19 03:49:00,
2013-10-18 23:54:00,38.8,37.2,29.98,SW,223,0.0,1.0,94,0.00,,,0.00,meteohub,2013-10-19 03:54:00,